Time,TemperatureF,DewpointF,PressureIn,WindDirection,WindDirectionDegrees,WindSpeedMPH,WindSpeedGustMPH,Humidity,HourlyPrecipIn,Conditions,Clouds,dailyrainin,SoftwareType,DateUTC
2013-02-16 00:09:00,59.2,58.6,29.80,West,270,1.1,-999.0,98,-99.99,,,0.00,Acu-Link.com,2013-02-16 05:09:00,
2013-02-16 00:24:00,59.2,58.6,29.81,South,180,0.0,-999.0,98,-99.99,,,0.00,Acu-Link.com,2013-02-16 05:24:00,
2013-02-16 00:40:00,59.2,58.3,29.80,WSW,247,0.0,-999.0,97,-99.99,,,0.00,Acu-Link.com,2013-02-16 05:40:00,
2013-02-16 00:55:00,59.2,58.3,29.79,West,270,0.0,-999.0,97,-99.99,,,0.00,Acu-Link.com,2013-02-16 05:55:00,
2013-02-16 01:10:00,59.0,58.1,29.79,West,270,0.0,-999.0,97,-99.99,,,0.00,Acu-Link.com,2013-02-16 06:10:00,
2013-02-16 01:26:00,58.8,57.9,29.79,NW,315,0.0,-999.0,97,-99.99,,,0.00,Acu-Link.com,2013-02-16 06:26:00,
2013-02-16 01:41:00,58.8,57.9,29.78,West,270,1.7,-999.0,97,-99.99,,,0.00,Acu-Link.com,2013-02-16 06:41:00,
2013-02-16 01:56:00,58.8,57.9,29.77,West,270,0.0,-999.0,97,-99.99,,,0.00,Acu-Link.com,2013-02-16 06:56:00,
2013-02-16 02:11:00,58.6,57.8,29.78,WSW,247,0.0,-999.0,97,-99.99,,,0.00,Acu-Link.com,2013-02-16 07:11:00,
2013-02-16 02:27:00,58.6,57.8,29.78,SE,135,0.0,-999.0,97,-99.99,,,0.00,Acu-Link.com,2013-02-16 07:27:00,
2013-02-16 02:42:00,58.6,57.8,29.77,West,270,0.0,-999.0,97,-99.99,,,0.00,Acu-Link.com,2013-02-16 07:42:00,
2013-02-16 02:57:00,58.3,57.5,29.77,WNW,292,0.0,-999.0,97,-99.99,,,0.00,Acu-Link.com,2013-02-16 07:57:00,
2013-02-16 03:13:00,58.3,57.5,29.76,SSW,202,0.0,-999.0,97,-99.99,,,0.00,Acu-Link.com,2013-02-16 08:13:00,
2013-02-16 03:28:00,58.3,57.5,29.76,West,270,0.0,-999.0,97,-99.99,,,0.00,Acu-Link.com,2013-02-16 08:28:00,
2013-02-16 03:43:00,58.5,57.7,29.74,SW,225,0.0,-999.0,97,-99.99,,,0.00,Acu-Link.com,2013-02-16 08:43:00,
2013-02-16 03:59:00,57.7,56.9,29.74,ESE,112,0.0,-999.0,97,-99.99,,,0.00,Acu-Link.com,2013-02-16 08:59:00,
2013-02-16 04:18:00,57.6,56.8,29.75,South,180,0.0,-999.0,97,-99.99,,,0.00,Acu-Link.com,2013-02-16 09:18:00,
2013-02-16 04:34:00,57.0,56.4,29.75,WSW,247,0.0,-999.0,98,-99.99,,,0.00,Acu-Link.com,2013-02-16 09:34:00,
2013-02-16 04:49:00,56.7,56.4,29.76,WNW,292,2.2,-999.0,99,-99.99,,,0.00,Acu-Link.com,2013-02-16 09:49:00,
2013-02-16 05:04:00,56.5,56.2,29.76,WSW,247,1.1,-999.0,99,-99.99,,,0.00,Acu-Link.com,2013-02-16 10:04:00,
2013-02-16 05:19:00,56.7,56.4,29.75,WNW,292,0.0,-999.0,99,-99.99,,,0.00,Acu-Link.com,2013-02-16 10:19:00,
2013-02-16 05:34:00,56.3,56.0,29.76,West,270,0.0,-999.0,99,-99.99,,,0.00,Acu-Link.com,2013-02-16 10:34:00,
2013-02-16 05:49:00,55.9,55.6,29.76,WNW,292,1.7,-999.0,99,-99.99,,,0.00,Acu-Link.com,2013-02-16 10:49:00,
2013-02-16 06:05:00,55.6,55.3,29.76,West,270,1.1,-999.0,99,-99.99,,,0.00,Acu-Link.com,2013-02-16 11:05:00,
2013-02-16 06:20:00,55.2,54.9,29.77,West,270,1.7,-999.0,99,-99.99,,,0.00,Acu-Link.com,2013-02-16 11:20:00,
2013-02-16 06:35:00,54.9,54.6,29.77,WNW,292,0.0,-999.0,99,-99.99,,,0.00,Acu-Link.com,2013-02-16 11:35:00,
2013-02-16 06:51:00,54.1,53.8,29.77,SW,225,0.0,-999.0,99,-99.99,,,0.00,Acu-Link.com,2013-02-16 11:51:00,
2013-02-16 07:06:00,53.6,53.0,29.76,WSW,247,0.0,-999.0,98,-99.99,,,0.00,Acu-Link.com,2013-02-16 12:06:00,
2013-02-16 07:21:00,53.4,52.8,29.78,SW,225,0.0,-999.0,98,-99.99,,,0.00,Acu-Link.com,2013-02-16 12:21:00,
2013-02-16 07:36:00,53.6,52.5,29.77,WNW,292,0.0,-999.0,96,-99.99,,,0.00,Acu-Link.com,2013-02-16 12:36:00,
2013-02-16 07:52:00,54.1,51.8,29.78,West,270,1.7,-999.0,92,-99.99,,,0.00,Acu-Link.com,2013-02-16 12:52:00,
2013-02-16 08:07:00,55.2,52.3,29.77,NNW,337,0.0,-999.0,90,-99.99,,,0.00,Acu-Link.com,2013-02-16 13:07:00,
2013-02-16 08:22:00,56.7,52.2,29.77,WNW,292,0.0,-999.0,85,-99.99,,,0.00,Acu-Link.com,2013-02-16 13:22:00,
2013-02-16 08:38:00,58.3,52.2,29.77,West,270,1.7,-999.0,80,-99.99,,,0.00,Acu-Link.com,2013-02-16 13:38:00,
2013-02-16 08:53:00,59.7,51.8,29.78,West,270,1.1,-999.0,75,-99.99,,,0.00,Acu-Link.com,2013-02-16 13:53:00,
2013-02-16 09:08:00,60.6,50.8,29.78,WNW,292,2.2,-999.0,70,-99.99,,,0.00,Acu-Link.com,2013-02-16 14:08:00,
2013-02-16 09:23:00,62.4,51.3,29.78,WNW,292,0.0,-999.0,67,-99.99,,,0.00,Acu-Link.com,2013-02-16 14:23:00,
2013-02-16 09:39:00,62.6,50.2,29.78,West,270,2.2,-999.0,64,-99.99,,,0.00,Acu-Link.com,2013-02-16 14:39:00,
2013-02-16 09:54:00,63.1,48.5,29.78,WNW,292,2.2,-999.0,59,-99.99,,,0.00,Acu-Link.com,2013-02-16 14:54:00,
2013-02-16 10:09:00,63.9,48.4,29.79,SSW,202,3.7,-999.0,57,-99.99,,,0.00,Acu-Link.com,2013-02-16 15:09:00,
2013-02-16 10:25:00,64.8,47.8,29.79,WSW,247,3.7,-999.0,54,-99.99,,,0.00,Acu-Link.com,2013-02-16 15:25:00,
2013-02-16 10:40:00,65.1,47.5,29.80,NW,315,1.7,-999.0,53,-99.99,,,0.00,Acu-Link.com,2013-02-16 15:40:00,
2013-02-16 10:55:00,66.6,49.4,29.79,West,270,0.0,-999.0,54,-99.99,,,0.00,Acu-Link.com,2013-02-16 15:55:00,
2013-02-16 11:11:00,67.5,49.2,29.78,West,270,2.7,-999.0,52,-99.99,,,0.00,Acu-Link.com,2013-02-16 16:11:00,
2013-02-16 11:26:00,67.1,49.9,29.79,WNW,292,3.7,-999.0,54,-99.99,,,0.00,Acu-Link.com,2013-02-16 16:26:00,
2013-02-16 11:41:00,68.0,48.7,29.78,West,270,4.2,-999.0,50,-99.99,,,0.00,Acu-Link.com,2013-02-16 16:41:00,
2013-02-16 11:57:00,69.1,47.4,29.78,West,270,4.2,-999.0,46,-99.99,,,0.00,Acu-Link.com,2013-02-16 16:57:00,
2013-02-16 12:12:00,70.3,47.9,29.77,South,180,4.2,-999.0,45,-99.99,,,0.00,Acu-Link.com,2013-02-16 17:12:00,
2013-02-16 12:27:00,70.9,47.3,29.77,West,270,1.7,-999.0,43,-99.99,,,0.00,Acu-Link.com,2013-02-16 17:27:00,
2013-02-16 12:42:00,68.5,45.1,29.76,SE,135,4.2,-999.0,43,-99.99,,,0.00,Acu-Link.com,2013-02-16 17:42:00,
2013-02-16 12:58:00,68.2,44.2,29.77,NE,45,3.7,-999.0,42,-99.99,,,0.00,Acu-Link.com,2013-02-16 17:58:00,
2013-02-16 13:13:00,69.8,45.0,29.75,West,270,3.7,-999.0,41,-99.99,,,0.00,Acu-Link.com,2013-02-16 18:13:00,
2013-02-16 13:28:00,69.6,43.5,29.75,West,270,6.8,-999.0,39,-99.99,,,0.00,Acu-Link.com,2013-02-16 18:28:00,
2013-02-16 13:44:00,69.1,42.4,29.75,NNW,337,2.7,-999.0,38,-99.99,,,0.00,Acu-Link.com,2013-02-16 18:44:00,
2013-02-16 13:59:00,68.7,39.9,29.74,SW,225,8.3,-999.0,35,-99.99,,,0.00,Acu-Link.com,2013-02-16 18:59:00,
2013-02-16 14:14:00,69.3,41.2,29.73,NW,315,3.7,-999.0,36,-99.99,,,0.00,Acu-Link.com,2013-02-16 19:14:00,
2013-02-16 14:29:00,70.0,41.8,29.74,North,0,7.8,-999.0,36,-99.99,,,0.00,Acu-Link.com,2013-02-16 19:29:00,
2013-02-16 14:44:00,69.4,42.0,29.73,WSW,247,6.3,-999.0,37,-99.99,,,0.00,Acu-Link.com,2013-02-16 19:44:00,
2013-02-16 15:00:00,69.6,42.2,29.72,WSW,247,8.3,-999.0,37,-99.99,,,0.00,Acu-Link.com,2013-02-16 20:00:00,
2013-02-16 15:15:00,69.3,43.3,29.73,West,270,5.3,-999.0,39,-99.99,,,0.00,Acu-Link.com,2013-02-16 20:15:00,
2013-02-16 15:30:00,69.1,44.4,29.72,NNW,337,10.9,-999.0,41,-99.99,,,0.00,Acu-Link.com,2013-02-16 20:30:00,
2013-02-16 15:45:00,68.2,44.8,29.72,West,270,6.8,-999.0,43,-99.99,,,0.00,Acu-Link.com,2013-02-16 20:45:00,
2013-02-16 16:01:00,69.1,46.3,29.73,SSW,202,5.3,-999.0,44,-99.99,,,0.00,Acu-Link.com,2013-02-16 21:01:00,
2013-02-16 16:16:00,67.8,46.8,29.74,South,180,4.7,-999.0,47,-99.99,,,0.00,Acu-Link.com,2013-02-16 21:16:00,
2013-02-16 16:31:00,66.7,46.4,29.73,North,0,7.3,-999.0,48,-99.99,,,0.00,Acu-Link.com,2013-02-16 21:31:00,
2013-02-16 16:46:00,65.8,46.6,29.75,West,270,6.3,-999.0,50,-99.99,,,0.00,Acu-Link.com,2013-02-16 21:46:00,
2013-02-16 17:02:00,65.3,46.2,29.75,ESE,112,8.9,-999.0,50,-99.99,,,0.00,Acu-Link.com,2013-02-16 22:02:00,
2013-02-16 17:17:00,64.8,44.6,29.76,SSW,202,8.3,-999.0,48,-99.99,,,0.00,Acu-Link.com,2013-02-16 22:17:00,
2013-02-16 17:32:00,64.8,44.1,29.75,NE,45,5.8,-999.0,47,-99.99,,,0.00,Acu-Link.com,2013-02-16 22:32:00,
2013-02-16 17:48:00,63.9,43.3,29.76,West,270,4.2,-999.0,47,-99.99,,,0.00,Acu-Link.com,2013-02-16 22:48:00,
2013-02-16 18:04:00,61.3,43.0,29.77,NW,315,7.8,-999.0,51,-99.99,,,0.00,Acu-Link.com,2013-02-16 23:04:00,
2013-02-16 18:19:00,59.7,41.5,29.79,SSW,202,6.3,-999.0,51,-99.99,,,0.00,Acu-Link.com,2013-02-16 23:19:00,
2013-02-16 18:34:00,58.6,41.0,29.79,WSW,247,5.8,-999.0,52,-99.99,,,0.00,Acu-Link.com,2013-02-16 23:34:00,
2013-02-16 18:49:00,57.7,40.7,29.80,West,270,2.2,-999.0,53,-99.99,,,0.00,Acu-Link.com,2013-02-16 23:49:00,
2013-02-16 19:05:00,56.8,41.3,29.81,SSE,157,2.7,-999.0,56,-99.99,,,0.00,Acu-Link.com,2013-02-17 00:05:00,
2013-02-16 19:20:00,56.3,40.8,29.82,NNW,337,7.8,-999.0,56,-99.99,,,0.00,Acu-Link.com,2013-02-17 00:20:00,
2013-02-16 19:35:00,55.4,39.5,29.84,West,270,3.7,-999.0,55,-99.99,,,0.00,Acu-Link.com,2013-02-17 00:35:00,
2013-02-16 19:51:00,54.7,37.9,29.85,ESE,112,5.3,-999.0,53,-99.99,,,0.00,Acu-Link.com,2013-02-17 00:51:00,
2013-02-16 20:06:00,54.0,36.3,29.86,West,270,2.7,-999.0,51,-99.99,,,0.00,Acu-Link.com,2013-02-17 01:06:00,
2013-02-16 20:21:00,52.9,33.8,29.86,NW,315,4.2,-999.0,48,-99.99,,,0.00,Acu-Link.com,2013-02-17 01:21:00,
2013-02-16 20:37:00,52.5,32.9,29.88,West,270,2.2,-999.0,47,-99.99,,,0.00,Acu-Link.com,2013-02-17 01:37:00,
2013-02-16 20:52:00,52.2,33.6,29.88,WSW,247,2.7,-999.0,49,-99.99,,,0.00,Acu-Link.com,2013-02-17 01:52:00,
2013-02-16 21:07:00,51.4,34.4,29.88,West,270,3.7,-999.0,52,-99.99,,,0.00,Acu-Link.com,2013-02-17 02:07:00,
2013-02-16 21:22:00,50.9,35.8,29.89,South,180,1.1,-999.0,56,-99.99,,,0.00,Acu-Link.com,2013-02-17 02:22:00,
2013-02-16 21:38:00,50.2,36.4,29.90,NNE,22,3.7,-999.0,59,-99.99,,,0.00,Acu-Link.com,2013-02-17 02:38:00,
2013-02-16 21:53:00,49.5,36.6,29.90,WNW,292,2.7,-999.0,61,-99.99,,,0.00,Acu-Link.com,2013-02-17 02:53:00,
2013-02-16 22:08:00,48.9,36.9,29.91,NNW,337,1.7,-999.0,63,-99.99,,,0.00,Acu-Link.com,2013-02-17 03:08:00,
2013-02-16 22:24:00,48.4,37.2,29.91,WSW,247,2.7,-999.0,65,-99.99,,,0.00,Acu-Link.com,2013-02-17 03:24:00,
2013-02-16 22:39:00,48.2,37.4,29.91,NE,45,3.2,-999.0,66,-99.99,,,0.00,Acu-Link.com,2013-02-17 03:39:00,
2013-02-16 22:54:00,48.0,38.0,29.92,WSW,247,1.1,-999.0,68,-99.99,,,0.00,Acu-Link.com,2013-02-17 03:54:00,
2013-02-16 23:10:00,48.2,37.8,29.92,WNW,292,1.7,-999.0,67,-99.99,,,0.00,Acu-Link.com,2013-02-17 04:10:00,
2013-02-16 23:25:00,48.4,37.6,29.92,NW,315,2.2,-999.0,66,-99.99,,,0.00,Acu-Link.com,2013-02-17 04:25:00,
2013-02-16 23:40:00,48.6,36.6,29.92,NNE,22,1.7,-999.0,63,-99.99,,,0.00,Acu-Link.com,2013-02-17 04:40:00,
2013-02-16 23:55:00,48.4,36.8,29.94,SE,135,2.2,-999.0,64,-99.99,,,0.00,Acu-Link.com,2013-02-17 04:55:00,